Login
Access
Login with your mtb-forum.it nickname and password.


You do not have an account? Sign up here for free

derrick64

Last training unit 27/10/2013
0
Followers
5 625 Km
itineraries
61 875 m
of total vertical gain
221
hours of riding
24.58 Km/h
average speed
124
average HR


27/10/2013 Show to everybody 1276029 103.24 Km 0 m 03:04:16 33.62 Km\h BMC SL01
27/10/2013 Show to everybody 1276028 32.1 Km 215 m 01:33:47 20.53 Km\h BMC SL01
20/10/2013 Show to everybody 1265537 70.65 Km 778 m 02:52:38 24.56 Km\h BMC SL01
19/10/2013 Show to everybody 1265531 26.55 Km 18 m 01:10:41 22.54 Km\h BMC SL01
13/10/2013 Show to everybody 1265534 76.5 Km 407 m 02:52:57 26.54 Km\h BMC SL01
22/09/2013 Show to everybody 1211907 78.79 Km 1302 m 03:21:10 23.5 Km\h BMC SL01
08/09/2013 Show to everybody bdc20130908071640 179.71 Km 2283 m 06:20:02 28.37 Km\h BMC SL01
01/09/2013 Show to everybody bdc20130901071822 87.39 Km 1126 m 03:29:20 25.05 Km\h BMC SL01
31/08/2013 Show to everybody bdc20130831153440 40.7 Km 224 m 02:03:48 19.72 Km\h BMC SL01
29/08/2013 Show to everybody bdc20130829071041 122.89 Km 1141 m 04:30:14 27.28 Km\h BMC SL01
27/08/2013 Show to everybody Allenamento 27-08-2013 alle 05:14:39 106.67 Km 1062 m 03:58:10 26.87 Km\h BMC SL01
26/08/2013 Show to everybody Allenamento 26-08-2013 alle 14:05:01 38.17 Km 124 m 01:52:06 20.43 Km\h BMC SL01
24/08/2013 Show to everybody Allenamento 24-08-2013 alle 13:52:39 30.32 Km 130 m 01:22:23 22.08 Km\h BMC SL01
22/08/2013 Show to everybody Allenamento 22-08-2013 alle 05:16:40 112.07 Km 1114 m 04:25:34 25.32 Km\h BMC SL01
18/08/2013 Show to everybody Allenamento 18-08-2013 alle 04:48:12 108.24 Km 1241 m 04:01:03 26.94 Km\h BMC SL01
15/08/2013 Show to everybody Allenamento 15-08-2013 alle 04:50:10 77.35 Km 831 m 03:04:56 25.1 Km\h BMC SL01
13/08/2013 Show to everybody Allenamento 13-08-2013 alle 04:53:10 152.64 Km 1876 m 05:49:41 26.19 Km\h BMC SL01
11/08/2013 Show to everybody S.Agata Feltria-Botticella 97.2 Km 1125 m 03:40:14 26.48 Km\h BMC SL01
08/08/2013 Show to everybody Savignano fino su alla Botticella 112.61 Km 1271 m 04:16:46 26.32 Km\h BMC SL01
06/08/2013 Show to everybody S.Lorenzo in Noceto-Predappio Alta 97.01 Km 825 m 03:53:56 24.88 Km\h BMC SL01
04/08/2013 Show to everybody 4^ prova Romagna Sprint 118.65 Km 2030 m 05:10:30 22.93 Km\h BMC SL01
01/08/2013 Show to everybody Quarto- Para-Alfero-Acquapartita 122.05 Km 1353 m 04:38:33 26.29 Km\h BMC SL01
30/07/2013 Show to everybody Bertinorino-Giaggiolo-Seguno-P.di Rivoschio 90.5 Km 1350 m 03:47:24 23.88 Km\h BMC SL01
28/07/2013 Show to everybody M.F. Ped.Gambettolese 98.49 Km 786 m 03:34:23 27.56 Km\h BMC SL01
25/07/2013 Show to everybody Grillo-Maiolo-Carpegna (150 km.) 37.76 Km 157 m 01:26:49 26.1 Km\h BMC SL01
23/07/2013 Show to everybody Rocca delle Caminate e ritorno 76.37 Km 620 m 03:05:43 24.67 Km\h BMC SL01
21/07/2013 Show to everybody M.F. Ruota D\`oro 89.7 Km 1274 m 03:40:02 24.46 Km\h BMC SL01
18/07/2013 Show to everybody Sarsina-M.Finocchio-Gessi 98 Km 1023 m 03:53:06 25.23 Km\h BMC SL01
17/07/2013 Show to everybody sgambatina con la mia dolce metà 27.91 Km 36 m 01:09:59 23.93 Km\h BMC SL01
16/07/2013 Show to everybody Savignano-Grilo-P.Messa-Petrella-Guidi-S.AgataFeltria-Sarsina 125.91 Km 1275 m 04:42:57 26.7 Km\h BMC SL01
14/07/2013 Show to everybody Savignano-Cornacchiara-Strigara-M.Vecchio 97.31 Km 1121 m 03:52:55 25.07 Km\h BMC SL01
04/07/2013 Show to everybody 04-07-2013 M.Maggio-S.Marino-Verucchio 114.56 Km 928 m 04:12:45 27.19 Km\h BMC SL01
02/07/2013 Show to everybody 02-07-2013 Ranchio-Spinello-Carnaio-S.Piero in bagno 118.94 Km 1310 m 04:31:37 26.27 Km\h BMC SL01
30/06/2013 Show to everybody M.dei feriti-Fratta-P.di rivoschio-M.Mercurio 90.13 Km 1285 m 03:23:19 26.6 Km\h BMC SL01
26/06/2013 Show to everybody Lizzano-Bertinoro-Polenta-Bertinoro 42.13 Km 566 m 01:41:12 24.98 Km\h BMC SL01
24/06/2013 Show to everybody Rocca delle caminate da Ravaldino 68.42 Km 574 m 02:34:31 26.57 Km\h BMC SL01
23/06/2013 Show to everybody S.Ermete-Verucchio-P.uso-Sogliamo 108.25 Km 877 m 03:40:40 29.43 Km\h BMC SL01
22/06/2013 Show to everybody Teodorano da Meldola 51.91 Km 601 m 01:55:43 26.92 Km\h BMC SL01
15/06/2013 Show to everybody Crocetta con la mia signora (brava) 37.46 Km 165 m 01:51:16 20.2 Km\h BMC SL01
13/06/2013 Show to everybody 13-06-13 S.Pieroin bagno e ritorno 110.9 Km 803 m 03:50:33 28.86 Km\h BMC SL01
11/06/2013 Show to everybody 11-06-13 Ranchio-M.Finocchio-Sarsina 74.77 Km 780 m 02:35:35 28.83 Km\h BMC SL01
09/06/2013 Show to everybody MF uisp ronta 88.27 Km 930 m 03:09:36 27.93 Km\h BMC SL01
07/06/2013 Show to everybody bdc20130607071048 39.69 Km 599 m 01:33:31 25.47 Km\h BMC SL01
05/06/2013 Show to everybody Allenamento 05-06-2013 alle 08:25:00 46.68 Km 835 m 01:58:14 23.69 Km\h BMC SL01
02/06/2013 Show to everybody Allenamento 02-06-2013 alle 05:32:10 100.64 Km 1245 m 03:54:14 25.78 Km\h BMC SL01
01/06/2013 Show to everybody Allenamento 01-06-2013 alle 08:17:30 30.18 Km 19 m 01:18:10 23.16 Km\h BMC SL01
30/05/2013 Show to everybody Allenamento 30-05-2013 alle 05:30:47 35.47 Km 384 m 01:16:32 27.8 Km\h BMC SL01
27/05/2013 Show to everybody Allenamento 27-05-2013 alle 05:09:39 41.06 Km 602 m 01:39:28 24.77 Km\h BMC SL01
21/05/2013 Show to everybody Allenamento 21-05-2013 alle 05:00:01 43.94 Km 640 m 01:49:00 24.19 Km\h BMC SL01
14/05/2013 Show to everybody Allenamento 14-05-2013 alle 05:09:06 40.33 Km 584 m 01:39:13 24.39 Km\h BMC SL01
08/05/2013 Show to everybody Allenamento 08-05-2013 alle 04:45:37 53.61 Km 1043 m 02:26:34 21.95 Km\h BMC SL01
05/05/2013 Show to everybody Allenamento 05-05-2013 alle 05:26:28 93.21 Km 998 m 03:31:52 26.4 Km\h BMC SL01
01/05/2013 Show to everybody Allenamento 01-05-2013 alle 06:11:07 72.25 Km 536 m 02:36:00 27.79 Km\h BMC SL01
30/04/2013 Show to everybody Allenamento 30-04-2013 alle 05:18:06 41.93 Km 585 m 01:43:43 24.26 Km\h BMC SL01
28/04/2013 Show to everybody Allenamento 28-04-2013 alle 05:07:18 130.29 Km 2264 m 05:51:35 22.23 Km\h BMC SL01
25/04/2013 Show to everybody Allenamento 25-04-2013 alle 05:46:40 102.11 Km 905 m 04:08:58 24.61 Km\h BMC SL01
23/04/2013 Show to everybody Allenamento 23-04-2013 alle 04:55:09 51.42 Km 580 m 01:58:11 26.1 Km\h BMC SL01
18/04/2013 Show to everybody Allenamento 18-04-2013 alle 04:59:52 40.31 Km 523 m 01:38:25 24.58 Km\h BMC SL01
16/04/2013 Show to everybody Allenamento 16-04-2013 alle 05:04:55 41.53 Km 512 m 01:42:42 24.26 Km\h BMC SL01
14/04/2013 Show to everybody Allenamento 14-04-2013 alle 06:03:25 88.37 Km 1307 m 03:29:12 25.34 Km\h BMC SL01
10/04/2013 Show to everybody Allenamento 10-04-2013 alle 05:26:37 32.61 Km 478 m 01:27:12 22.44 Km\h BMC SL01
07/04/2013 Show to everybody Allenamento 07-04-2013 alle 06:05:37 94.91 Km 625 m 03:11:51 29.68 Km\h BMC SL01
03/04/2013 Show to everybody Allenamento 03-04-2013 alle 05:34:12 35.16 Km 501 m 01:30:21 23.35 Km\h BMC SL01
01/04/2013 Show to everybody Allenamento 01-04-2013 alle 06:23:01 77.27 Km 1080 m 03:21:44 22.98 Km\h BMC SL01
30/03/2013 Show to everybody Allenamento 30-03-2013 alle 06:00:05 65.02 Km 1088 m 02:45:59 23.5 Km\h BMC SL01
27/03/2013 Show to everybody Allenamento 27-03-2013 alle 12:48:26 41.39 Km 532 m 01:38:30 25.21 Km\h BMC SL01
24/03/2013 Show to everybody Allenamento 24-03-2013 alle 06:25:32 107.33 Km 1713 m 04:30:54 23.77 Km\h BMC SL01
22/03/2013 Show to everybody Allenamento 22-03-2013 alle 06:23:54 37.9 Km 620 m 01:41:43 22.36 Km\h BMC SL01
20/03/2013 Show to everybody Allenamento 20-03-2013 alle 06:17:59 37.33 Km 560 m 01:38:08 22.83 Km\h BMC SL01
17/03/2013 Show to everybody Allenamento 17-03-2013 alle 07:04:35 75.96 Km 871 m 02:56:24 25.84 Km\h BMC SL01
16/03/2013 Show to everybody Allenamento 16-03-2013 alle 07:46:35 73.51 Km 702 m 02:52:23 25.59 Km\h BMC SL01
12/03/2013 Show to everybody Allenamento 12-03-2013 alle 06:27:11 46.85 Km 497 m 01:55:21 24.37 Km\h BMC SL01
10/03/2013 Show to everybody Allenamento 10-03-2013 alle 06:54:11 77.8 Km 953 m 03:05:34 25.16 Km\h BMC SL01
03/03/2013 Show to everybody Allenamento 03-03-2013 alle 07:01:50 75.46 Km 531 m 03:00:07 25.14 Km\h BMC SL01

Show previous years trainings
This user's bikes.
BMC SL01 47 3740.22 Km 38397 m 145:09:23 24.53 Km/h

58 points
Kilometers
0
Vertical gain
0
Rank:206

Watch ranking »

 

Bike name

Delete this bike?

Now you follow this users and you can compare your trainings

If you stop following this users you will not be able to compare your trainings with his


bdc-forum.it | 2012-2019 Training Camp v.1.0.15